sensor_id;sensor_type;location;lat;lon;timestamp;P1;durP1;ratioP1;P2;durP2;ratioP2
4061;SDS011;2046;47.064;15.456;2022-09-30T00:01:32;1.83;;;1.38;;
4061;SDS011;2046;47.064;15.456;2022-09-30T00:03:58;1.67;;;1.38;;
4061;SDS011;2046;47.064;15.456;2022-09-30T00:06:26;1.40;;;1.30;;
4061;SDS011;2046;47.064;15.456;2022-09-30T00:08:53;1.52;;;1.33;;
4061;SDS011;2046;47.064;15.456;2022-09-30T00:11:24;1.23;;;1.10;;
4061;SDS011;2046;47.064;15.456;2022-09-30T00:13:51;1.10;;;1.00;;
4061;SDS011;2046;47.064;15.456;2022-09-30T00:16:18;1.40;;;1.17;;
4061;SDS011;2046;47.064;15.456;2022-09-30T00:18:46;1.45;;;1.35;;
4061;SDS011;2046;47.064;15.456;2022-09-30T00:21:13;1.23;;;1.13;;
4061;SDS011;2046;47.064;15.456;2022-09-30T00:23:41;1.85;;;1.40;;
4061;SDS011;2046;47.064;15.456;2022-09-30T00:26:13;1.88;;;1.65;;
4061;SDS011;2046;47.064;15.456;2022-09-30T00:28:40;1.52;;;1.42;;
4061;SDS011;2046;47.064;15.456;2022-09-30T00:31:09;1.30;;;1.20;;
4061;SDS011;2046;47.064;15.456;2022-09-30T00:33:38;1.58;;;1.13;;
4061;SDS011;2046;47.064;15.456;2022-09-30T00:36:05;1.40;;;1.30;;
4061;SDS011;2046;47.064;15.456;2022-09-30T00:38:31;1.23;;;1.13;;
4061;SDS011;2046;47.064;15.456;2022-09-30T00:40:59;1.23;;;1.05;;
4061;SDS011;2046;47.064;15.456;2022-09-30T00:46:14;1.95;;;0.95;;
4061;SDS011;2046;47.064;15.456;2022-09-30T00:48:42;1.20;;;1.08;;
4061;SDS011;2046;47.064;15.456;2022-09-30T00:51:08;1.40;;;1.30;;
4061;SDS011;2046;47.064;15.456;2022-09-30T00:53:42;1.30;;;1.20;;
4061;SDS011;2046;47.064;15.456;2022-09-30T00:56:10;1.55;;;1.17;;
4061;SDS011;2046;47.064;15.456;2022-09-30T00:58:46;1.65;;;1.55;;
4061;SDS011;2046;47.064;15.456;2022-09-30T01:01:14;1.77;;;1.40;;
4061;SDS011;2046;47.064;15.456;2022-09-30T01:03:46;1.88;;;1.30;;
4061;SDS011;2046;47.064;15.456;2022-09-30T01:06:16;1.88;;;1.35;;
4061;SDS011;2046;47.064;15.456;2022-09-30T01:08:42;2.33;;;1.33;;
4061;SDS011;2046;47.064;15.456;2022-09-30T01:11:10;2.53;;;1.40;;
4061;SDS011;2046;47.064;15.456;2022-09-30T01:13:37;1.92;;;1.55;;
4061;SDS011;2046;47.064;15.456;2022-09-30T01:24:08;1.13;;;1.05;;
4061;SDS011;2046;47.064;15.456;2022-09-30T01:36:53;1.52;;;1.25;;
4061;SDS011;2046;47.064;15.456;2022-09-30T01:40:07;1.38;;;1.20;;
4061;SDS011;2046;47.064;15.456;2022-09-30T01:44:58;1.58;;;1.48;;
4061;SDS011;2046;47.064;15.456;2022-09-30T01:47:33;1.20;;;1.02;;
4061;SDS011;2046;47.064;15.456;2022-09-30T01:50:07;1.50;;;1.30;;
4061;SDS011;2046;47.064;15.456;2022-09-30T01:55:39;2.78;;;1.10;;
4061;SDS011;2046;47.064;15.456;2022-09-30T01:58:11;1.75;;;1.40;;
4061;SDS011;2046;47.064;15.456;2022-09-30T02:00:41;2.47;;;1.40;;
4061;SDS011;2046;47.064;15.456;2022-09-30T02:03:13;1.58;;;1.23;;
4061;SDS011;2046;47.064;15.456;2022-09-30T02:08:15;1.30;;;1.17;;
4061;SDS011;2046;47.064;15.456;2022-09-30T02:10:47;3.40;;;1.30;;
4061;SDS011;2046;47.064;15.456;2022-09-30T02:13:23;1.23;;;1.13;;
4061;SDS011;2046;47.064;15.456;2022-09-30T02:15:52;1.33;;;1.23;;
4061;SDS011;2046;47.064;15.456;2022-09-30T02:18:21;1.48;;;1.35;;
4061;SDS011;2046;47.064;15.456;2022-09-30T02:20:51;1.25;;;1.15;;
4061;SDS011;2046;47.064;15.456;2022-09-30T02:23:21;1.48;;;1.25;;
4061;SDS011;2046;47.064;15.456;2022-09-30T02:25:58;1.08;;;1.00;;
4061;SDS011;2046;47.064;15.456;2022-09-30T02:28:33;2.80;;;1.33;;
4061;SDS011;2046;47.064;15.456;2022-09-30T02:31:01;1.58;;;1.20;;
4061;SDS011;2046;47.064;15.456;2022-09-30T02:33:31;1.20;;;1.10;;
4061;SDS011;2046;47.064;15.456;2022-09-30T02:36:01;1.30;;;1.20;;
4061;SDS011;2046;47.064;15.456;2022-09-30T02:38:33;1.30;;;1.20;;
4061;SDS011;2046;47.064;15.456;2022-09-30T02:43:31;1.35;;;1.25;;
4061;SDS011;2046;47.064;15.456;2022-09-30T02:48:43;1.13;;;1.02;;
4061;SDS011;2046;47.064;15.456;2022-09-30T02:51:27;1.63;;;1.40;;
4061;SDS011;2046;47.064;15.456;2022-09-30T02:56:26;1.77;;;1.13;;
4061;SDS011;2046;47.064;15.456;2022-09-30T02:58:54;3.58;;;1.10;;
4061;SDS011;2046;47.064;15.456;2022-09-30T03:01:22;1.33;;;1.23;;
4061;SDS011;2046;47.064;15.456;2022-09-30T03:03:50;1.30;;;1.05;;
4061;SDS011;2046;47.064;15.456;2022-09-30T03:06:18;1.92;;;1.30;;
4061;SDS011;2046;47.064;15.456;2022-09-30T03:08:45;1.25;;;1.13;;
4061;SDS011;2046;47.064;15.456;2022-09-30T03:11:19;1.10;;;1.10;;
4061;SDS011;2046;47.064;15.456;2022-09-30T03:26:59;3.17;;;1.30;;
4061;SDS011;2046;47.064;15.456;2022-09-30T03:34:58;4.82;;;1.98;;
4061;SDS011;2046;47.064;15.456;2022-09-30T03:37:40;1.50;;;1.40;;
4061;SDS011;2046;47.064;15.456;2022-09-30T03:43:05;1.48;;;1.33;;
4061;SDS011;2046;47.064;15.456;2022-09-30T03:45:36;0.98;;;0.98;;
4061;SDS011;2046;47.064;15.456;2022-09-30T03:48:04;1.15;;;0.95;;
4061;SDS011;2046;47.064;15.456;2022-09-30T03:50:32;1.40;;;1.30;;
4061;SDS011;2046;47.064;15.456;2022-09-30T03:52:59;1.50;;;1.17;;
4061;SDS011;2046;47.064;15.456;2022-09-30T03:55:26;2.30;;;1.27;;
4061;SDS011;2046;47.064;15.456;2022-09-30T03:57:53;1.77;;;1.45;;
4061;SDS011;2046;47.064;15.456;2022-09-30T04:00:20;2.45;;;1.33;;
4061;SDS011;2046;47.064;15.456;2022-09-30T04:02:46;1.52;;;1.33;;
4061;SDS011;2046;47.064;15.456;2022-09-30T04:05:13;2.40;;;1.42;;
4061;SDS011;2046;47.064;15.456;2022-09-30T04:07:40;1.30;;;1.17;;
4061;SDS011;2046;47.064;15.456;2022-09-30T04:10:06;1.90;;;1.20;;
4061;SDS011;2046;47.064;15.456;2022-09-30T04:12:33;1.50;;;1.33;;
4061;SDS011;2046;47.064;15.456;2022-09-30T04:14:59;1.48;;;1.38;;
4061;SDS011;2046;47.064;15.456;2022-09-30T04:17:26;2.85;;;1.20;;
4061;SDS011;2046;47.064;15.456;2022-09-30T04:19:52;1.55;;;1.27;;
4061;SDS011;2046;47.064;15.456;2022-09-30T04:22:19;1.48;;;1.33;;
4061;SDS011;2046;47.064;15.456;2022-09-30T04:24:51;1.80;;;1.63;;
4061;SDS011;2046;47.064;15.456;2022-09-30T04:27:18;1.58;;;1.42;;
4061;SDS011;2046;47.064;15.456;2022-09-30T04:29:44;1.83;;;1.38;;
4061;SDS011;2046;47.064;15.456;2022-09-30T04:32:11;2.45;;;1.10;;
4061;SDS011;2046;47.064;15.456;2022-09-30T04:34:37;1.70;;;1.50;;
4061;SDS011;2046;47.064;15.456;2022-09-30T04:37:03;2.25;;;1.50;;
4061;SDS011;2046;47.064;15.456;2022-09-30T04:39:36;8.27;;;1.92;;
4061;SDS011;2046;47.064;15.456;2022-09-30T04:42:02;2.40;;;1.45;;
4061;SDS011;2046;47.064;15.456;2022-09-30T04:44:29;1.70;;;1.50;;
4061;SDS011;2046;47.064;15.456;2022-09-30T04:46:55;2.25;;;1.58;;
4061;SDS011;2046;47.064;15.456;2022-09-30T04:49:22;2.13;;;1.38;;
4061;SDS011;2046;47.064;15.456;2022-09-30T04:51:49;2.30;;;1.40;;
4061;SDS011;2046;47.064;15.456;2022-09-30T04:54:16;1.80;;;1.58;;
4061;SDS011;2046;47.064;15.456;2022-09-30T04:56:42;1.75;;;1.38;;
4061;SDS011;2046;47.064;15.456;2022-09-30T04:59:09;1.30;;;1.20;;
4061;SDS011;2046;47.064;15.456;2022-09-30T05:01:36;1.20;;;1.10;;
4061;SDS011;2046;47.064;15.456;2022-09-30T05:04:02;1.55;;;1.30;;
4061;SDS011;2046;47.064;15.456;2022-09-30T05:06:29;2.05;;;1.30;;
4061;SDS011;2046;47.064;15.456;2022-09-30T05:08:56;1.98;;;1.45;;
4061;SDS011;2046;47.064;15.456;2022-09-30T05:11:22;1.85;;;1.30;;
4061;SDS011;2046;47.064;15.456;2022-09-30T05:13:49;1.40;;;1.30;;
4061;SDS011;2046;47.064;15.456;2022-09-30T05:16:16;1.35;;;1.25;;
4061;SDS011;2046;47.064;15.456;2022-09-30T05:18:43;1.50;;;1.40;;
4061;SDS011;2046;47.064;15.456;2022-09-30T05:21:13;1.42;;;1.33;;
4061;SDS011;2046;47.064;15.456;2022-09-30T05:23:40;2.40;;;1.52;;
4061;SDS011;2046;47.064;15.456;2022-09-30T05:26:06;2.05;;;1.40;;
4061;SDS011;2046;47.064;15.456;2022-09-30T05:28:37;1.80;;;1.50;;
4061;SDS011;2046;47.064;15.456;2022-09-30T05:31:04;2.33;;;1.30;;
4061;SDS011;2046;47.064;15.456;2022-09-30T05:33:34;1.35;;;1.23;;
4061;SDS011;2046;47.064;15.456;2022-09-30T05:36:02;1.27;;;1.17;;
4061;SDS011;2046;47.064;15.456;2022-09-30T05:38:29;1.42;;;1.33;;
4061;SDS011;2046;47.064;15.456;2022-09-30T05:40:55;1.35;;;1.25;;
4061;SDS011;2046;47.064;15.456;2022-09-30T05:43:22;1.83;;;1.40;;
4061;SDS011;2046;47.064;15.456;2022-09-30T05:45:53;1.38;;;1.30;;
4061;SDS011;2046;47.064;15.456;2022-09-30T05:48:19;1.42;;;1.33;;
4061;SDS011;2046;47.064;15.456;2022-09-30T05:50:46;1.20;;;1.10;;
4061;SDS011;2046;47.064;15.456;2022-09-30T05:53:16;1.15;;;1.13;;
4061;SDS011;2046;47.064;15.456;2022-09-30T05:55:44;2.83;;;1.20;;
4061;SDS011;2046;47.064;15.456;2022-09-30T05:58:12;1.20;;;1.05;;
4061;SDS011;2046;47.064;15.456;2022-09-30T06:00:42;1.50;;;1.40;;
4061;SDS011;2046;47.064;15.456;2022-09-30T06:03:09;1.63;;;1.27;;
4061;SDS011;2046;47.064;15.456;2022-09-30T06:05:36;2.25;;;1.17;;
4061;SDS011;2046;47.064;15.456;2022-09-30T06:08:02;1.58;;;1.25;;
4061;SDS011;2046;47.064;15.456;2022-09-30T06:10:29;1.30;;;1.20;;
4061;SDS011;2046;47.064;15.456;2022-09-30T06:12:56;1.48;;;1.38;;
4061;SDS011;2046;47.064;15.456;2022-09-30T06:15:24;1.70;;;1.30;;
4061;SDS011;2046;47.064;15.456;2022-09-30T06:17:52;2.92;;;1.20;;
4061;SDS011;2046;47.064;15.456;2022-09-30T06:20:19;4.47;;;1.17;;
4061;SDS011;2046;47.064;15.456;2022-09-30T06:22:46;1.30;;;1.20;;
4061;SDS011;2046;47.064;15.456;2022-09-30T06:25:13;5.60;;;2.03;;
4061;SDS011;2046;47.064;15.456;2022-09-30T06:27:42;1.52;;;1.40;;
4061;SDS011;2046;47.064;15.456;2022-09-30T06:30:09;2.00;;;1.20;;
4061;SDS011;2046;47.064;15.456;2022-09-30T06:32:36;1.70;;;1.17;;
4061;SDS011;2046;47.064;15.456;2022-09-30T06:35:03;2.08;;;1.30;;
4061;SDS011;2046;47.064;15.456;2022-09-30T06:37:29;1.50;;;1.20;;
4061;SDS011;2046;47.064;15.456;2022-09-30T06:39:56;4.60;;;1.92;;
4061;SDS011;2046;47.064;15.456;2022-09-30T06:42:23;1.67;;;1.58;;
4061;SDS011;2046;47.064;15.456;2022-09-30T06:44:50;2.03;;;1.40;;
4061;SDS011;2046;47.064;15.456;2022-09-30T06:47:18;3.50;;;3.17;;
4061;SDS011;2046;47.064;15.456;2022-09-30T06:49:50;8.70;;;7.90;;
4061;SDS011;2046;47.064;15.456;2022-09-30T06:52:18;12.25;;;10.95;;
4061;SDS011;2046;47.064;15.456;2022-09-30T06:54:45;7.75;;;5.40;;
4061;SDS011;2046;47.064;15.456;2022-09-30T06:57:12;4.10;;;3.70;;
4061;SDS011;2046;47.064;15.456;2022-09-30T06:59:39;3.30;;;3.00;;
4061;SDS011;2046;47.064;15.456;2022-09-30T07:02:07;2.60;;;2.40;;
4061;SDS011;2046;47.064;15.456;2022-09-30T07:04:34;24.45;;;13.20;;
4061;SDS011;2046;47.064;15.456;2022-09-30T07:07:01;15.00;;;8.10;;
4061;SDS011;2046;47.064;15.456;2022-09-30T07:09:28;10.43;;;6.20;;
4061;SDS011;2046;47.064;15.456;2022-09-30T07:11:55;8.68;;;5.03;;
4061;SDS011;2046;47.064;15.456;2022-09-30T07:14:22;7.05;;;4.32;;
4061;SDS011;2046;47.064;15.456;2022-09-30T07:16:50;6.93;;;3.92;;
4061;SDS011;2046;47.064;15.456;2022-09-30T07:19:18;5.85;;;3.42;;
4061;SDS011;2046;47.064;15.456;2022-09-30T07:21:48;6.65;;;3.30;;
4061;SDS011;2046;47.064;15.456;2022-09-30T07:24:18;5.78;;;2.80;;
4061;SDS011;2046;47.064;15.456;2022-09-30T07:26:45;5.53;;;2.47;;
4061;SDS011;2046;47.064;15.456;2022-09-30T07:29:12;4.40;;;2.42;;
4061;SDS011;2046;47.064;15.456;2022-09-30T07:31:39;8.63;;;4.20;;
4061;SDS011;2046;47.064;15.456;2022-09-30T07:34:07;5.18;;;3.20;;
4061;SDS011;2046;47.064;15.456;2022-09-30T07:36:35;8.43;;;2.95;;
4061;SDS011;2046;47.064;15.456;2022-09-30T07:39:05;2.45;;;2.10;;
4061;SDS011;2046;47.064;15.456;2022-09-30T07:41:33;4.07;;;2.33;;
4061;SDS011;2046;47.064;15.456;2022-09-30T07:44:01;4.32;;;2.00;;
4061;SDS011;2046;47.064;15.456;2022-09-30T07:46:29;3.00;;;2.03;;
4061;SDS011;2046;47.064;15.456;2022-09-30T07:48:56;3.97;;;1.70;;
4061;SDS011;2046;47.064;15.456;2022-09-30T07:54:02;5.28;;;3.78;;
4061;SDS011;2046;47.064;15.456;2022-09-30T07:56:31;69.53;;;47.70;;
4061;SDS011;2046;47.064;15.456;2022-09-30T07:59:18;30.58;;;24.83;;
4061;SDS011;2046;47.064;15.456;2022-09-30T08:01:45;19.95;;;14.32;;
4061;SDS011;2046;47.064;15.456;2022-09-30T08:04:13;14.18;;;10.70;;
4061;SDS011;2046;47.064;15.456;2022-09-30T08:06:44;13.25;;;10.65;;
4061;SDS011;2046;47.064;15.456;2022-09-30T08:09:12;11.85;;;9.88;;
4061;SDS011;2046;47.064;15.456;2022-09-30T08:11:39;15.98;;;8.52;;
4061;SDS011;2046;47.064;15.456;2022-09-30T08:14:12;8.68;;;7.40;;
4061;SDS011;2046;47.064;15.456;2022-09-30T08:16:39;11.30;;;8.10;;
4061;SDS011;2046;47.064;15.456;2022-09-30T08:19:06;9.32;;;7.38;;
4061;SDS011;2046;47.064;15.456;2022-09-30T08:21:34;8.88;;;7.15;;
4061;SDS011;2046;47.064;15.456;2022-09-30T10:29:45;7.93;;;3.22;;
4061;SDS011;2046;47.064;15.456;2022-09-30T10:32:12;6.70;;;3.20;;
4061;SDS011;2046;47.064;15.456;2022-09-30T10:34:39;5.07;;;3.42;;
4061;SDS011;2046;47.064;15.456;2022-09-30T10:37:17;4.03;;;3.35;;
4061;SDS011;2046;47.064;15.456;2022-09-30T10:40:01;4.82;;;4.10;;
4061;SDS011;2046;47.064;15.456;2022-09-30T10:42:30;5.38;;;4.50;;
4061;SDS011;2046;47.064;15.456;2022-09-30T10:45:05;6.50;;;4.10;;
4061;SDS011;2046;47.064;15.456;2022-09-30T10:47:32;4.15;;;3.55;;
4061;SDS011;2046;47.064;15.456;2022-09-30T10:50:06;4.10;;;3.70;;
4061;SDS011;2046;47.064;15.456;2022-09-30T10:52:38;4.43;;;3.80;;
4061;SDS011;2046;47.064;15.456;2022-09-30T10:55:06;6.22;;;3.65;;
4061;SDS011;2046;47.064;15.456;2022-09-30T10:57:40;4.00;;;3.70;;
4061;SDS011;2046;47.064;15.456;2022-09-30T11:00:14;3.67;;;3.35;;
4061;SDS011;2046;47.064;15.456;2022-09-30T11:02:46;4.60;;;3.58;;
4061;SDS011;2046;47.064;15.456;2022-09-30T11:08:02;2.78;;;2.55;;
4061;SDS011;2046;47.064;15.456;2022-09-30T11:13:22;2.97;;;2.70;;
4061;SDS011;2046;47.064;15.456;2022-09-30T11:18:26;8.15;;;5.90;;
4061;SDS011;2046;47.064;15.456;2022-09-30T11:20:56;3.60;;;3.10;;
4061;SDS011;2046;47.064;15.456;2022-09-30T11:23:29;4.22;;;2.80;;
4061;SDS011;2046;47.064;15.456;2022-09-30T11:28:38;3.25;;;2.70;;
4061;SDS011;2046;47.064;15.456;2022-09-30T11:36:32;2.97;;;2.20;;
4061;SDS011;2046;47.064;15.456;2022-09-30T11:41:56;4.00;;;2.28;;
4061;SDS011;2046;47.064;15.456;2022-09-30T11:52:10;2.40;;;2.20;;
4061;SDS011;2046;47.064;15.456;2022-09-30T11:54:43;2.58;;;2.25;;
4061;SDS011;2046;47.064;15.456;2022-09-30T11:57:17;3.70;;;2.10;;
4061;SDS011;2046;47.064;15.456;2022-09-30T12:02:35;2.10;;;1.92;;
4061;SDS011;2046;47.064;15.456;2022-09-30T12:05:45;3.33;;;2.05;;
4061;SDS011;2046;47.064;15.456;2022-09-30T12:10:38;2.65;;;2.30;;
4061;SDS011;2046;47.064;15.456;2022-09-30T12:13:09;2.10;;;2.00;;
4061;SDS011;2046;47.064;15.456;2022-09-30T12:15:40;1.80;;;1.70;;
4061;SDS011;2046;47.064;15.456;2022-09-30T12:18:12;2.40;;;2.08;;
4061;SDS011;2046;47.064;15.456;2022-09-30T12:20:41;1.95;;;1.80;;
4061;SDS011;2046;47.064;15.456;2022-09-30T12:23:25;2.17;;;1.98;;
4061;SDS011;2046;47.064;15.456;2022-09-30T12:25:55;2.00;;;1.85;;
4061;SDS011;2046;47.064;15.456;2022-09-30T12:34:07;2.20;;;2.00;;
4061;SDS011;2046;47.064;15.456;2022-09-30T12:36:41;2.35;;;2.13;;
4061;SDS011;2046;47.064;15.456;2022-09-30T12:41:49;2.20;;;2.00;;
4061;SDS011;2046;47.064;15.456;2022-09-30T12:44:36;2.03;;;1.83;;
4061;SDS011;2046;47.064;15.456;2022-09-30T12:49:51;2.45;;;2.25;;
4061;SDS011;2046;47.064;15.456;2022-09-30T12:52:19;3.78;;;1.88;;
4061;SDS011;2046;47.064;15.456;2022-09-30T12:54:54;2.15;;;1.70;;
4061;SDS011;2046;47.064;15.456;2022-09-30T12:57:29;1.90;;;1.80;;
4061;SDS011;2046;47.064;15.456;2022-09-30T12:59:57;1.90;;;1.80;;
4061;SDS011;2046;47.064;15.456;2022-09-30T13:02:37;1.90;;;1.80;;
4061;SDS011;2046;47.064;15.456;2022-09-30T13:15:42;3.88;;;1.98;;
4061;SDS011;2046;47.064;15.456;2022-09-30T13:28:51;2.47;;;1.85;;
4061;SDS011;2046;47.064;15.456;2022-09-30T13:31:24;1.85;;;1.63;;
4061;SDS011;2046;47.064;15.456;2022-09-30T13:36:39;3.17;;;1.70;;
4061;SDS011;2046;47.064;15.456;2022-09-30T13:39:16;1.60;;;1.50;;
4061;SDS011;2046;47.064;15.456;2022-09-30T13:41:43;4.75;;;1.90;;
4061;SDS011;2046;47.064;15.456;2022-09-30T13:44:13;2.08;;;1.70;;
4061;SDS011;2046;47.064;15.456;2022-09-30T13:46:52;1.85;;;1.70;;
4061;SDS011;2046;47.064;15.456;2022-09-30T13:49:25;2.78;;;1.65;;
4061;SDS011;2046;47.064;15.456;2022-09-30T13:51:55;2.85;;;1.55;;
4061;SDS011;2046;47.064;15.456;2022-09-30T13:54:25;2.58;;;1.70;;
4061;SDS011;2046;47.064;15.456;2022-09-30T13:56:53;3.75;;;1.70;;
4061;SDS011;2046;47.064;15.456;2022-09-30T14:07:01;3.38;;;1.75;;
4061;SDS011;2046;47.064;15.456;2022-09-30T14:17:51;3.58;;;1.80;;
4061;SDS011;2046;47.064;15.456;2022-09-30T14:22:50;1.70;;;1.60;;
4061;SDS011;2046;47.064;15.456;2022-09-30T14:25:17;2.28;;;1.45;;
4061;SDS011;2046;47.064;15.456;2022-09-30T14:30:21;1.50;;;1.40;;
4061;SDS011;2046;47.064;15.456;2022-09-30T14:35:31;2.10;;;1.90;;
4061;SDS011;2046;47.064;15.456;2022-09-30T14:38:00;1.63;;;1.50;;
4061;SDS011;2046;47.064;15.456;2022-09-30T14:40:34;1.27;;;1.20;;
4061;SDS011;2046;47.064;15.456;2022-09-30T14:43:03;2.88;;;1.33;;
4061;SDS011;2046;47.064;15.456;2022-09-30T14:45:31;1.27;;;1.17;;
4061;SDS011;2046;47.064;15.456;2022-09-30T14:48:00;1.40;;;1.30;;
4061;SDS011;2046;47.064;15.456;2022-09-30T14:50:28;2.85;;;1.30;;
4061;SDS011;2046;47.064;15.456;2022-09-30T14:52:58;1.42;;;1.33;;
4061;SDS011;2046;47.064;15.456;2022-09-30T14:55:34;1.25;;;1.15;;
4061;SDS011;2046;47.064;15.456;2022-09-30T15:01:07;3.03;;;1.60;;
4061;SDS011;2046;47.064;15.456;2022-09-30T15:03:37;2.38;;;1.50;;
4061;SDS011;2046;47.064;15.456;2022-09-30T15:06:05;2.10;;;1.55;;
4061;SDS011;2046;47.064;15.456;2022-09-30T15:08:41;1.48;;;1.38;;
4061;SDS011;2046;47.064;15.456;2022-09-30T15:11:07;3.90;;;1.60;;
4061;SDS011;2046;47.064;15.456;2022-09-30T15:13:34;3.72;;;1.52;;
4061;SDS011;2046;47.064;15.456;2022-09-30T15:16:02;3.63;;;1.58;;
4061;SDS011;2046;47.064;15.456;2022-09-30T15:18:30;1.42;;;1.33;;
4061;SDS011;2046;47.064;15.456;2022-09-30T15:20:58;1.30;;;1.20;;
4061;SDS011;2046;47.064;15.456;2022-09-30T15:23:27;1.67;;;1.40;;
4061;SDS011;2046;47.064;15.456;2022-09-30T15:25:54;1.50;;;1.40;;
4061;SDS011;2046;47.064;15.456;2022-09-30T15:28:23;1.73;;;1.27;;
4061;SDS011;2046;47.064;15.456;2022-09-30T15:30:50;1.50;;;1.40;;
4061;SDS011;2046;47.064;15.456;2022-09-30T15:33:20;1.50;;;1.40;;
4061;SDS011;2046;47.064;15.456;2022-09-30T15:35:49;1.73;;;1.42;;
4061;SDS011;2046;47.064;15.456;2022-09-30T15:38:20;1.35;;;1.20;;
4061;SDS011;2046;47.064;15.456;2022-09-30T15:40:53;1.50;;;1.40;;
4061;SDS011;2046;47.064;15.456;2022-09-30T15:43:37;1.58;;;1.48;;
4061;SDS011;2046;47.064;15.456;2022-09-30T15:46:58;1.73;;;1.50;;
4061;SDS011;2046;47.064;15.456;2022-09-30T15:48:59;2.03;;;1.20;;
4061;SDS011;2046;47.064;15.456;2022-09-30T15:51:29;1.73;;;1.40;;
4061;SDS011;2046;47.064;15.456;2022-09-30T15:53:59;3.28;;;1.40;;
4061;SDS011;2046;47.064;15.456;2022-09-30T15:56:30;1.40;;;1.30;;
4061;SDS011;2046;47.064;15.456;2022-09-30T15:59:08;2.08;;;1.40;;
4061;SDS011;2046;47.064;15.456;2022-09-30T16:12:06;1.67;;;1.40;;
4061;SDS011;2046;47.064;15.456;2022-09-30T16:14:39;2.22;;;1.42;;
4061;SDS011;2046;47.064;15.456;2022-09-30T16:17:18;1.40;;;1.30;;
4061;SDS011;2046;47.064;15.456;2022-09-30T16:19:50;2.85;;;1.85;;
4061;SDS011;2046;47.064;15.456;2022-09-30T16:28:08;7.03;;;2.67;;
4061;SDS011;2046;47.064;15.456;2022-09-30T16:30:45;31.80;;;7.82;;
4061;SDS011;2046;47.064;15.456;2022-09-30T16:33:12;22.35;;;6.22;;
4061;SDS011;2046;47.064;15.456;2022-09-30T16:35:40;35.70;;;14.02;;
4061;SDS011;2046;47.064;15.456;2022-09-30T16:38:08;116.47;;;34.00;;
4061;SDS011;2046;47.064;15.456;2022-09-30T16:40:35;101.22;;;28.45;;
4061;SDS011;2046;47.064;15.456;2022-09-30T16:43:03;94.82;;;28.45;;
4061;SDS011;2046;47.064;15.456;2022-09-30T16:45:33;97.25;;;28.35;;
4061;SDS011;2046;47.064;15.456;2022-09-30T16:48:00;97.57;;;27.05;;
4061;SDS011;2046;47.064;15.456;2022-09-30T16:50:32;82.18;;;27.17;;
4061;SDS011;2046;47.064;15.456;2022-09-30T16:53:00;82.35;;;27.13;;
4061;SDS011;2046;47.064;15.456;2022-09-30T16:55:27;79.75;;;24.23;;
4061;SDS011;2046;47.064;15.456;2022-09-30T16:57:54;78.47;;;25.17;;
4061;SDS011;2046;47.064;15.456;2022-09-30T17:00:26;64.85;;;22.40;;
4061;SDS011;2046;47.064;15.456;2022-09-30T17:02:53;62.42;;;19.45;;
4061;SDS011;2046;47.064;15.456;2022-09-30T17:05:21;54.15;;;16.38;;
4061;SDS011;2046;47.064;15.456;2022-09-30T17:07:52;37.65;;;13.18;;
4061;SDS011;2046;47.064;15.456;2022-09-30T17:10:20;34.65;;;12.88;;
4061;SDS011;2046;47.064;15.456;2022-09-30T17:12:47;32.08;;;10.82;;
4061;SDS011;2046;47.064;15.456;2022-09-30T17:15:16;28.02;;;10.82;;
4061;SDS011;2046;47.064;15.456;2022-09-30T17:17:43;20.95;;;7.68;;
4061;SDS011;2046;47.064;15.456;2022-09-30T17:20:10;16.20;;;6.22;;
4061;SDS011;2046;47.064;15.456;2022-09-30T17:22:37;14.85;;;6.15;;
4061;SDS011;2046;47.064;15.456;2022-09-30T17:25:04;18.92;;;6.53;;
4061;SDS011;2046;47.064;15.456;2022-09-30T17:27:30;18.00;;;6.72;;
4061;SDS011;2046;47.064;15.456;2022-09-30T17:29:57;15.65;;;5.97;;
4061;SDS011;2046;47.064;15.456;2022-09-30T17:32:23;15.63;;;5.88;;
4061;SDS011;2046;47.064;15.456;2022-09-30T17:34:50;12.32;;;5.65;;
4061;SDS011;2046;47.064;15.456;2022-09-30T17:37:17;13.48;;;5.75;;
4061;SDS011;2046;47.064;15.456;2022-09-30T17:39:45;10.93;;;5.10;;
4061;SDS011;2046;47.064;15.456;2022-09-30T17:42:12;13.32;;;5.55;;
4061;SDS011;2046;47.064;15.456;2022-09-30T17:44:57;15.02;;;5.25;;
4061;SDS011;2046;47.064;15.456;2022-09-30T17:47:24;15.13;;;5.00;;
4061;SDS011;2046;47.064;15.456;2022-09-30T17:49:52;13.05;;;5.13;;
4061;SDS011;2046;47.064;15.456;2022-09-30T17:52:18;15.98;;;4.65;;
4061;SDS011;2046;47.064;15.456;2022-09-30T17:54:45;12.05;;;5.57;;
4061;SDS011;2046;47.064;15.456;2022-09-30T17:57:18;12.77;;;4.78;;
4061;SDS011;2046;47.064;15.456;2022-09-30T17:59:44;12.55;;;5.38;;
4061;SDS011;2046;47.064;15.456;2022-09-30T18:02:12;10.55;;;4.65;;
4061;SDS011;2046;47.064;15.456;2022-09-30T18:04:40;11.88;;;4.57;;
4061;SDS011;2046;47.064;15.456;2022-09-30T18:07:07;11.93;;;4.68;;
4061;SDS011;2046;47.064;15.456;2022-09-30T18:09:36;11.85;;;4.53;;
4061;SDS011;2046;47.064;15.456;2022-09-30T18:12:03;12.20;;;4.28;;
4061;SDS011;2046;47.064;15.456;2022-09-30T18:14:30;10.05;;;4.38;;
4061;SDS011;2046;47.064;15.456;2022-09-30T18:17:04;10.48;;;3.88;;
4061;SDS011;2046;47.064;15.456;2022-09-30T18:19:31;10.52;;;4.45;;
4061;SDS011;2046;47.064;15.456;2022-09-30T18:21:59;11.70;;;4.03;;
4061;SDS011;2046;47.064;15.456;2022-09-30T18:24:25;11.68;;;4.05;;
4061;SDS011;2046;47.064;15.456;2022-09-30T18:27:10;12.15;;;4.30;;
4061;SDS011;2046;47.064;15.456;2022-09-30T18:29:37;12.60;;;4.10;;
4061;SDS011;2046;47.064;15.456;2022-09-30T18:32:04;10.15;;;4.00;;
4061;SDS011;2046;47.064;15.456;2022-09-30T18:34:30;8.85;;;4.15;;
4061;SDS011;2046;47.064;15.456;2022-09-30T18:36:57;14.18;;;4.20;;
4061;SDS011;2046;47.064;15.456;2022-09-30T18:39:33;8.35;;;4.20;;
4061;SDS011;2046;47.064;15.456;2022-09-30T18:42:00;9.30;;;3.83;;
4061;SDS011;2046;47.064;15.456;2022-09-30T18:44:27;8.48;;;4.10;;
4061;SDS011;2046;47.064;15.456;2022-09-30T18:46:55;9.38;;;4.18;;
4061;SDS011;2046;47.064;15.456;2022-09-30T18:49:21;9.20;;;3.70;;
4061;SDS011;2046;47.064;15.456;2022-09-30T18:51:48;8.63;;;3.60;;
4061;SDS011;2046;47.064;15.456;2022-09-30T18:54:14;8.38;;;3.42;;
4061;SDS011;2046;47.064;15.456;2022-09-30T18:56:41;8.98;;;3.97;;
4061;SDS011;2046;47.064;15.456;2022-09-30T18:59:09;9.75;;;4.45;;
4061;SDS011;2046;47.064;15.456;2022-09-30T19:01:47;8.07;;;3.78;;
4061;SDS011;2046;47.064;15.456;2022-09-30T19:04:14;7.53;;;2.95;;
4061;SDS011;2046;47.064;15.456;2022-09-30T19:06:41;6.93;;;3.95;;
4061;SDS011;2046;47.064;15.456;2022-09-30T19:09:08;12.25;;;4.05;;
4061;SDS011;2046;47.064;15.456;2022-09-30T19:11:35;7.85;;;3.80;;
4061;SDS011;2046;47.064;15.456;2022-09-30T19:14:02;10.18;;;3.72;;
4061;SDS011;2046;47.064;15.456;2022-09-30T19:16:29;8.55;;;3.85;;
4061;SDS011;2046;47.064;15.456;2022-09-30T19:19:04;9.73;;;4.07;;
4061;SDS011;2046;47.064;15.456;2022-09-30T19:21:30;9.55;;;3.83;;
4061;SDS011;2046;47.064;15.456;2022-09-30T19:24:03;7.30;;;3.63;;
4061;SDS011;2046;47.064;15.456;2022-09-30T19:26:30;13.70;;;3.70;;
4061;SDS011;2046;47.064;15.456;2022-09-30T19:28:57;7.15;;;3.40;;
4061;SDS011;2046;47.064;15.456;2022-09-30T19:31:23;8.32;;;3.60;;
4061;SDS011;2046;47.064;15.456;2022-09-30T19:33:51;7.88;;;3.60;;
4061;SDS011;2046;47.064;15.456;2022-09-30T19:36:22;9.27;;;3.20;;
4061;SDS011;2046;47.064;15.456;2022-09-30T19:38:50;8.20;;;2.90;;
4061;SDS011;2046;47.064;15.456;2022-09-30T19:41:25;7.18;;;3.08;;
4061;SDS011;2046;47.064;15.456;2022-09-30T19:43:56;10.52;;;3.78;;
4061;SDS011;2046;47.064;15.456;2022-09-30T19:46:24;4.93;;;2.97;;
4061;SDS011;2046;47.064;15.456;2022-09-30T19:48:50;6.18;;;3.25;;
4061;SDS011;2046;47.064;15.456;2022-09-30T19:51:17;8.30;;;3.30;;
4061;SDS011;2046;47.064;15.456;2022-09-30T19:53:44;7.43;;;2.97;;
4061;SDS011;2046;47.064;15.456;2022-09-30T19:56:29;4.45;;;2.72;;
4061;SDS011;2046;47.064;15.456;2022-09-30T19:58:56;8.52;;;3.70;;
4061;SDS011;2046;47.064;15.456;2022-09-30T20:01:25;5.50;;;3.00;;
4061;SDS011;2046;47.064;15.456;2022-09-30T20:03:56;5.45;;;2.97;;
4061;SDS011;2046;47.064;15.456;2022-09-30T20:06:24;6.47;;;2.60;;
4061;SDS011;2046;47.064;15.456;2022-09-30T20:08:53;7.35;;;3.25;;